sensor_id;sensor_type;location;lat;lon;timestamp;P1;durP1;ratioP1;P2;durP2;ratioP2
4409;SDS011;2218;51.408;7.208;2023-07-16T00:01:00;0.80;;;0.70;;
4409;SDS011;2218;51.408;7.208;2023-07-16T00:03:27;0.80;;;0.80;;
4409;SDS011;2218;51.408;7.208;2023-07-16T00:05:54;0.80;;;0.80;;
4409;SDS011;2218;51.408;7.208;2023-07-16T00:08:23;0.90;;;0.90;;
4409;SDS011;2218;51.408;7.208;2023-07-16T00:10:49;1.03;;;0.93;;
4409;SDS011;2218;51.408;7.208;2023-07-16T00:13:17;0.80;;;0.70;;
4409;SDS011;2218;51.408;7.208;2023-07-16T00:15:44;0.80;;;0.73;;
4409;SDS011;2218;51.408;7.208;2023-07-16T00:18:10;0.80;;;0.80;;
4409;SDS011;2218;51.408;7.208;2023-07-16T00:20:37;0.80;;;0.70;;
4409;SDS011;2218;51.408;7.208;2023-07-16T00:23:04;1.27;;;0.87;;
4409;SDS011;2218;51.408;7.208;2023-07-16T00:25:33;1.17;;;1.13;;
4409;SDS011;2218;51.408;7.208;2023-07-16T00:28:00;0.80;;;0.70;;
4409;SDS011;2218;51.408;7.208;2023-07-16T00:30:27;1.00;;;0.90;;
4409;SDS011;2218;51.408;7.208;2023-07-16T00:32:54;0.80;;;0.70;;
4409;SDS011;2218;51.408;7.208;2023-07-16T00:35:21;0.70;;;0.63;;
4409;SDS011;2218;51.408;7.208;2023-07-16T00:37:48;0.90;;;0.63;;
4409;SDS011;2218;51.408;7.208;2023-07-16T00:40:15;0.90;;;0.90;;
4409;SDS011;2218;51.408;7.208;2023-07-16T00:42:43;0.80;;;0.80;;
4409;SDS011;2218;51.408;7.208;2023-07-16T00:45:12;0.73;;;0.60;;
4409;SDS011;2218;51.408;7.208;2023-07-16T00:47:40;0.70;;;0.70;;
4409;SDS011;2218;51.408;7.208;2023-07-16T00:50:09;0.80;;;0.80;;
4409;SDS011;2218;51.408;7.208;2023-07-16T00:52:37;0.90;;;0.70;;
4409;SDS011;2218;51.408;7.208;2023-07-16T00:55:06;0.80;;;0.70;;
4409;SDS011;2218;51.408;7.208;2023-07-16T00:57:35;0.80;;;0.70;;
4409;SDS011;2218;51.408;7.208;2023-07-16T01:00:04;0.80;;;0.80;;
4409;SDS011;2218;51.408;7.208;2023-07-16T01:02:32;0.80;;;0.80;;
4409;SDS011;2218;51.408;7.208;2023-07-16T01:04:59;0.90;;;0.90;;
4409;SDS011;2218;51.408;7.208;2023-07-16T01:07:27;0.80;;;0.73;;
4409;SDS011;2218;51.408;7.208;2023-07-16T01:09:57;1.00;;;0.90;;
4409;SDS011;2218;51.408;7.208;2023-07-16T01:12:25;0.87;;;0.87;;
4409;SDS011;2218;51.408;7.208;2023-07-16T01:14:54;0.80;;;0.70;;
4409;SDS011;2218;51.408;7.208;2023-07-16T01:17:26;0.80;;;0.77;;
4409;SDS011;2218;51.408;7.208;2023-07-16T01:19:52;1.00;;;0.80;;
4409;SDS011;2218;51.408;7.208;2023-07-16T01:22:25;1.10;;;0.97;;
4409;SDS011;2218;51.408;7.208;2023-07-16T01:28:21;0.70;;;0.70;;
4409;SDS011;2218;51.408;7.208;2023-07-16T01:31:19;1.03;;;0.80;;
4409;SDS011;2218;51.408;7.208;2023-07-16T01:33:48;0.80;;;0.73;;
4409;SDS011;2218;51.408;7.208;2023-07-16T01:36:17;0.70;;;0.50;;
4409;SDS011;2218;51.408;7.208;2023-07-16T01:38:45;0.97;;;0.60;;
4409;SDS011;2218;51.408;7.208;2023-07-16T01:41:13;0.80;;;0.70;;
4409;SDS011;2218;51.408;7.208;2023-07-16T01:43:40;0.80;;;0.70;;
4409;SDS011;2218;51.408;7.208;2023-07-16T01:46:07;0.80;;;0.70;;
4409;SDS011;2218;51.408;7.208;2023-07-16T01:48:37;0.90;;;0.73;;
4409;SDS011;2218;51.408;7.208;2023-07-16T01:51:04;0.80;;;0.63;;
4409;SDS011;2218;51.408;7.208;2023-07-16T01:53:31;1.37;;;0.70;;
4409;SDS011;2218;51.408;7.208;2023-07-16T01:55:58;0.80;;;0.70;;
4409;SDS011;2218;51.408;7.208;2023-07-16T01:58:28;0.80;;;0.60;;
4409;SDS011;2218;51.408;7.208;2023-07-16T02:00:55;0.73;;;0.67;;
4409;SDS011;2218;51.408;7.208;2023-07-16T02:03:22;0.70;;;0.70;;
4409;SDS011;2218;51.408;7.208;2023-07-16T02:05:50;0.97;;;0.87;;
4409;SDS011;2218;51.408;7.208;2023-07-16T02:08:17;0.80;;;0.70;;
4409;SDS011;2218;51.408;7.208;2023-07-16T02:10:44;0.80;;;0.70;;
4409;SDS011;2218;51.408;7.208;2023-07-16T02:13:13;0.70;;;0.60;;
4409;SDS011;2218;51.408;7.208;2023-07-16T02:15:40;0.70;;;0.60;;
4409;SDS011;2218;51.408;7.208;2023-07-16T02:18:08;0.70;;;0.70;;
4409;SDS011;2218;51.408;7.208;2023-07-16T02:20:37;0.80;;;0.70;;
4409;SDS011;2218;51.408;7.208;2023-07-16T02:23:05;1.10;;;1.00;;
4409;SDS011;2218;51.408;7.208;2023-07-16T02:25:32;0.80;;;0.80;;
4409;SDS011;2218;51.408;7.208;2023-07-16T02:27:59;1.10;;;0.80;;
4409;SDS011;2218;51.408;7.208;2023-07-16T02:30:28;0.77;;;0.77;;
4409;SDS011;2218;51.408;7.208;2023-07-16T02:32:55;0.80;;;0.70;;
4409;SDS011;2218;51.408;7.208;2023-07-16T02:35:22;0.90;;;0.77;;
4409;SDS011;2218;51.408;7.208;2023-07-16T02:37:49;0.80;;;0.70;;
4409;SDS011;2218;51.408;7.208;2023-07-16T02:40:19;0.70;;;0.70;;
4409;SDS011;2218;51.408;7.208;2023-07-16T02:42:46;0.70;;;0.60;;
4409;SDS011;2218;51.408;7.208;2023-07-16T02:45:12;0.90;;;0.80;;
4409;SDS011;2218;51.408;7.208;2023-07-16T02:47:41;0.90;;;0.90;;
4409;SDS011;2218;51.408;7.208;2023-07-16T02:50:08;0.80;;;0.73;;
4409;SDS011;2218;51.408;7.208;2023-07-16T02:52:36;0.80;;;0.80;;
4409;SDS011;2218;51.408;7.208;2023-07-16T02:55:03;1.43;;;0.83;;
4409;SDS011;2218;51.408;7.208;2023-07-16T02:57:32;1.00;;;0.90;;
4409;SDS011;2218;51.408;7.208;2023-07-16T02:59:59;0.80;;;0.63;;
4409;SDS011;2218;51.408;7.208;2023-07-16T03:02:27;0.73;;;0.67;;
4409;SDS011;2218;51.408;7.208;2023-07-16T03:04:54;0.80;;;0.60;;
4409;SDS011;2218;51.408;7.208;2023-07-16T03:07:20;0.70;;;0.60;;
4409;SDS011;2218;51.408;7.208;2023-07-16T03:09:49;0.80;;;0.70;;
4409;SDS011;2218;51.408;7.208;2023-07-16T03:12:16;0.70;;;0.60;;
4409;SDS011;2218;51.408;7.208;2023-07-16T03:14:44;1.00;;;0.80;;
4409;SDS011;2218;51.408;7.208;2023-07-16T03:17:11;0.80;;;0.70;;
4409;SDS011;2218;51.408;7.208;2023-07-16T03:19:38;0.80;;;0.70;;
4409;SDS011;2218;51.408;7.208;2023-07-16T03:22:05;0.70;;;0.60;;
4409;SDS011;2218;51.408;7.208;2023-07-16T03:24:32;0.70;;;0.57;;
4409;SDS011;2218;51.408;7.208;2023-07-16T03:26:59;0.80;;;0.70;;
4409;SDS011;2218;51.408;7.208;2023-07-16T03:29:27;1.00;;;0.60;;
4409;SDS011;2218;51.408;7.208;2023-07-16T03:31:55;0.80;;;0.80;;
4409;SDS011;2218;51.408;7.208;2023-07-16T03:34:22;0.90;;;0.63;;
4409;SDS011;2218;51.408;7.208;2023-07-16T03:36:49;0.90;;;0.80;;
4409;SDS011;2218;51.408;7.208;2023-07-16T03:39:16;0.83;;;0.83;;
4409;SDS011;2218;51.408;7.208;2023-07-16T03:41:44;0.80;;;0.80;;
4409;SDS011;2218;51.408;7.208;2023-07-16T03:44:10;0.90;;;0.90;;
4409;SDS011;2218;51.408;7.208;2023-07-16T03:46:38;1.17;;;0.70;;
4409;SDS011;2218;51.408;7.208;2023-07-16T03:49:07;0.80;;;0.70;;
4409;SDS011;2218;51.408;7.208;2023-07-16T03:51:35;0.80;;;0.60;;
4409;SDS011;2218;51.408;7.208;2023-07-16T03:54:02;0.77;;;0.70;;
4409;SDS011;2218;51.408;7.208;2023-07-16T03:56:31;0.80;;;0.80;;
4409;SDS011;2218;51.408;7.208;2023-07-16T03:58:58;0.80;;;0.60;;
4409;SDS011;2218;51.408;7.208;2023-07-16T04:01:25;0.90;;;0.90;;
4409;SDS011;2218;51.408;7.208;2023-07-16T04:03:52;0.97;;;0.90;;
4409;SDS011;2218;51.408;7.208;2023-07-16T04:06:21;0.80;;;0.60;;
4409;SDS011;2218;51.408;7.208;2023-07-16T04:08:48;0.90;;;0.80;;
4409;SDS011;2218;51.408;7.208;2023-07-16T04:11:15;0.80;;;0.70;;
4409;SDS011;2218;51.408;7.208;2023-07-16T04:13:42;0.80;;;0.63;;
4409;SDS011;2218;51.408;7.208;2023-07-16T04:16:09;0.70;;;0.63;;
4409;SDS011;2218;51.408;7.208;2023-07-16T04:18:36;0.93;;;0.80;;
4409;SDS011;2218;51.408;7.208;2023-07-16T04:21:02;0.70;;;0.70;;
4409;SDS011;2218;51.408;7.208;2023-07-16T04:23:31;1.10;;;0.90;;
4409;SDS011;2218;51.408;7.208;2023-07-16T04:25:58;0.70;;;0.60;;
4409;SDS011;2218;51.408;7.208;2023-07-16T04:28:24;0.77;;;0.70;;
4409;SDS011;2218;51.408;7.208;2023-07-16T04:30:51;1.10;;;1.00;;
4409;SDS011;2218;51.408;7.208;2023-07-16T04:33:18;0.80;;;0.73;;
4409;SDS011;2218;51.408;7.208;2023-07-16T04:35:45;0.80;;;0.80;;
4409;SDS011;2218;51.408;7.208;2023-07-16T04:38:12;0.77;;;0.77;;
4409;SDS011;2218;51.408;7.208;2023-07-16T04:40:42;0.80;;;0.80;;
4409;SDS011;2218;51.408;7.208;2023-07-16T04:43:09;0.77;;;0.70;;
4409;SDS011;2218;51.408;7.208;2023-07-16T04:45:36;0.80;;;0.70;;
4409;SDS011;2218;51.408;7.208;2023-07-16T04:48:05;0.80;;;0.80;;
4409;SDS011;2218;51.408;7.208;2023-07-16T04:50:32;0.80;;;0.70;;
4409;SDS011;2218;51.408;7.208;2023-07-16T04:52:59;0.80;;;0.77;;
4409;SDS011;2218;51.408;7.208;2023-07-16T04:55:26;0.80;;;0.80;;
4409;SDS011;2218;51.408;7.208;2023-07-16T04:57:54;0.90;;;0.73;;
4409;SDS011;2218;51.408;7.208;2023-07-16T05:00:22;0.80;;;0.77;;
4409;SDS011;2218;51.408;7.208;2023-07-16T05:02:49;0.87;;;0.80;;
4409;SDS011;2218;51.408;7.208;2023-07-16T05:05:16;0.70;;;0.60;;
4409;SDS011;2218;51.408;7.208;2023-07-16T05:07:43;0.90;;;0.70;;
4409;SDS011;2218;51.408;7.208;2023-07-16T05:10:10;0.77;;;0.70;;
4409;SDS011;2218;51.408;7.208;2023-07-16T05:12:37;0.80;;;0.67;;
4409;SDS011;2218;51.408;7.208;2023-07-16T05:15:06;0.80;;;0.70;;
4409;SDS011;2218;51.408;7.208;2023-07-16T05:17:35;0.80;;;0.70;;
4409;SDS011;2218;51.408;7.208;2023-07-16T05:20:01;0.80;;;0.70;;
4409;SDS011;2218;51.408;7.208;2023-07-16T05:22:29;0.80;;;0.67;;
4409;SDS011;2218;51.408;7.208;2023-07-16T05:24:56;1.00;;;0.80;;
4409;SDS011;2218;51.408;7.208;2023-07-16T05:27:23;0.80;;;0.70;;
4409;SDS011;2218;51.408;7.208;2023-07-16T05:29:50;0.80;;;0.60;;
4409;SDS011;2218;51.408;7.208;2023-07-16T05:32:18;1.10;;;0.80;;
4409;SDS011;2218;51.408;7.208;2023-07-16T05:34:45;0.80;;;0.80;;
4409;SDS011;2218;51.408;7.208;2023-07-16T05:37:12;0.80;;;0.80;;
4409;SDS011;2218;51.408;7.208;2023-07-16T05:39:39;0.80;;;0.80;;
4409;SDS011;2218;51.408;7.208;2023-07-16T05:42:06;1.03;;;0.70;;
4409;SDS011;2218;51.408;7.208;2023-07-16T05:44:33;0.73;;;0.60;;
4409;SDS011;2218;51.408;7.208;2023-07-16T05:47:00;0.80;;;0.80;;
4409;SDS011;2218;51.408;7.208;2023-07-16T05:49:28;1.00;;;0.90;;
4409;SDS011;2218;51.408;7.208;2023-07-16T05:51:55;0.80;;;0.80;;
4409;SDS011;2218;51.408;7.208;2023-07-16T05:54:22;1.00;;;0.73;;
4409;SDS011;2218;51.408;7.208;2023-07-16T05:56:49;0.77;;;0.73;;
4409;SDS011;2218;51.408;7.208;2023-07-16T05:59:16;0.70;;;0.70;;
4409;SDS011;2218;51.408;7.208;2023-07-16T06:01:43;0.80;;;0.60;;
4409;SDS011;2218;51.408;7.208;2023-07-16T06:04:10;1.17;;;0.80;;
4409;SDS011;2218;51.408;7.208;2023-07-16T06:06:38;0.80;;;0.70;;
4409;SDS011;2218;51.408;7.208;2023-07-16T06:09:05;0.70;;;0.60;;
4409;SDS011;2218;51.408;7.208;2023-07-16T06:11:32;0.80;;;0.77;;
4409;SDS011;2218;51.408;7.208;2023-07-16T06:13:59;0.80;;;0.77;;
4409;SDS011;2218;51.408;7.208;2023-07-16T06:16:26;1.53;;;0.70;;
4409;SDS011;2218;51.408;7.208;2023-07-16T06:18:53;0.83;;;0.83;;
4409;SDS011;2218;51.408;7.208;2023-07-16T06:21:21;0.90;;;0.80;;
4409;SDS011;2218;51.408;7.208;2023-07-16T06:23:50;0.90;;;0.90;;
4409;SDS011;2218;51.408;7.208;2023-07-16T06:26:17;0.70;;;0.70;;
4409;SDS011;2218;51.408;7.208;2023-07-16T06:28:43;0.90;;;0.70;;
4409;SDS011;2218;51.408;7.208;2023-07-16T06:31:14;0.80;;;0.80;;
4409;SDS011;2218;51.408;7.208;2023-07-16T06:33:41;1.00;;;0.90;;
4409;SDS011;2218;51.408;7.208;2023-07-16T06:36:08;1.00;;;0.83;;
4409;SDS011;2218;51.408;7.208;2023-07-16T06:38:35;0.80;;;0.70;;
4409;SDS011;2218;51.408;7.208;2023-07-16T06:41:03;0.80;;;0.77;;
4409;SDS011;2218;51.408;7.208;2023-07-16T06:43:30;0.80;;;0.80;;
4409;SDS011;2218;51.408;7.208;2023-07-16T06:45:57;0.80;;;0.80;;
4409;SDS011;2218;51.408;7.208;2023-07-16T06:48:24;1.97;;;1.00;;
4409;SDS011;2218;51.408;7.208;2023-07-16T06:50:51;0.90;;;0.80;;
4409;SDS011;2218;51.408;7.208;2023-07-16T06:53:18;1.00;;;0.63;;
4409;SDS011;2218;51.408;7.208;2023-07-16T06:55:47;0.90;;;0.80;;
4409;SDS011;2218;51.408;7.208;2023-07-16T06:58:15;0.80;;;0.80;;
4409;SDS011;2218;51.408;7.208;2023-07-16T07:00:42;1.07;;;0.97;;
4409;SDS011;2218;51.408;7.208;2023-07-16T07:03:09;0.90;;;0.90;;
4409;SDS011;2218;51.408;7.208;2023-07-16T07:05:40;0.80;;;0.70;;
4409;SDS011;2218;51.408;7.208;2023-07-16T07:08:07;0.90;;;0.80;;
4409;SDS011;2218;51.408;7.208;2023-07-16T07:10:34;1.33;;;1.00;;
4409;SDS011;2218;51.408;7.208;2023-07-16T07:13:03;0.83;;;0.83;;
4409;SDS011;2218;51.408;7.208;2023-07-16T07:15:31;1.07;;;0.97;;
4409;SDS011;2218;51.408;7.208;2023-07-16T07:17:58;1.10;;;0.80;;
4409;SDS011;2218;51.408;7.208;2023-07-16T07:20:25;0.80;;;0.80;;
4409;SDS011;2218;51.408;7.208;2023-07-16T07:22:52;0.80;;;0.80;;
4409;SDS011;2218;51.408;7.208;2023-07-16T07:25:19;0.87;;;0.83;;
4409;SDS011;2218;51.408;7.208;2023-07-16T07:27:46;1.13;;;1.07;;
4409;SDS011;2218;51.408;7.208;2023-07-16T07:30:12;1.47;;;1.10;;
4409;SDS011;2218;51.408;7.208;2023-07-16T07:32:41;1.20;;;1.10;;
4409;SDS011;2218;51.408;7.208;2023-07-16T07:35:08;0.90;;;0.90;;
4409;SDS011;2218;51.408;7.208;2023-07-16T07:37:35;1.07;;;0.97;;
4409;SDS011;2218;51.408;7.208;2023-07-16T07:40:02;1.37;;;1.27;;
4409;SDS011;2218;51.408;7.208;2023-07-16T07:42:30;1.10;;;1.00;;
4409;SDS011;2218;51.408;7.208;2023-07-16T07:44:57;0.93;;;0.93;;
4409;SDS011;2218;51.408;7.208;2023-07-16T07:47:24;1.00;;;0.90;;
4409;SDS011;2218;51.408;7.208;2023-07-16T07:49:53;1.20;;;0.87;;
4409;SDS011;2218;51.408;7.208;2023-07-16T07:52:20;1.10;;;1.00;;
4409;SDS011;2218;51.408;7.208;2023-07-16T07:54:47;1.10;;;1.00;;
4409;SDS011;2218;51.408;7.208;2023-07-16T07:57:15;0.90;;;0.90;;
4409;SDS011;2218;51.408;7.208;2023-07-16T07:59:42;1.20;;;1.10;;
4409;SDS011;2218;51.408;7.208;2023-07-16T08:02:09;1.10;;;1.00;;
4409;SDS011;2218;51.408;7.208;2023-07-16T08:04:35;0.80;;;0.80;;
4409;SDS011;2218;51.408;7.208;2023-07-16T08:07:04;1.10;;;0.93;;
4409;SDS011;2218;51.408;7.208;2023-07-16T08:09:31;0.87;;;0.87;;
4409;SDS011;2218;51.408;7.208;2023-07-16T08:11:58;1.03;;;0.97;;
4409;SDS011;2218;51.408;7.208;2023-07-16T08:14:25;1.20;;;1.10;;
4409;SDS011;2218;51.408;7.208;2023-07-16T08:16:52;1.17;;;1.10;;
4409;SDS011;2218;51.408;7.208;2023-07-16T08:19:19;1.40;;;1.30;;
4409;SDS011;2218;51.408;7.208;2023-07-16T08:21:46;1.00;;;1.00;;
4409;SDS011;2218;51.408;7.208;2023-07-16T08:24:14;1.20;;;1.10;;
4409;SDS011;2218;51.408;7.208;2023-07-16T08:26:41;1.20;;;1.10;;
4409;SDS011;2218;51.408;7.208;2023-07-16T08:29:08;1.20;;;1.10;;
4409;SDS011;2218;51.408;7.208;2023-07-16T08:31:35;1.10;;;1.00;;
4409;SDS011;2218;51.408;7.208;2023-07-16T08:34:02;1.20;;;1.10;;
4409;SDS011;2218;51.408;7.208;2023-07-16T08:36:29;2.30;;;1.10;;
4409;SDS011;2218;51.408;7.208;2023-07-16T08:38:56;1.20;;;1.10;;
4409;SDS011;2218;51.408;7.208;2023-07-16T08:41:24;1.10;;;1.00;;
4409;SDS011;2218;51.408;7.208;2023-07-16T08:43:52;1.43;;;1.33;;
4409;SDS011;2218;51.408;7.208;2023-07-16T08:46:20;1.30;;;1.20;;
4409;SDS011;2218;51.408;7.208;2023-07-16T08:48:47;1.40;;;1.30;;
4409;SDS011;2218;51.408;7.208;2023-07-16T08:51:15;1.40;;;1.30;;
4409;SDS011;2218;51.408;7.208;2023-07-16T08:53:42;1.40;;;1.30;;
4409;SDS011;2218;51.408;7.208;2023-07-16T08:56:10;1.30;;;1.17;;
4409;SDS011;2218;51.408;7.208;2023-07-16T08:58:38;1.30;;;1.20;;
4409;SDS011;2218;51.408;7.208;2023-07-16T09:01:09;1.20;;;1.10;;
4409;SDS011;2218;51.408;7.208;2023-07-16T09:03:36;1.20;;;1.10;;
4409;SDS011;2218;51.408;7.208;2023-07-16T09:06:03;1.10;;;1.00;;
4409;SDS011;2218;51.408;7.208;2023-07-16T09:08:31;1.63;;;1.53;;
4409;SDS011;2218;51.408;7.208;2023-07-16T09:10:58;1.20;;;1.10;;
4409;SDS011;2218;51.408;7.208;2023-07-16T09:13:25;1.40;;;1.30;;
4409;SDS011;2218;51.408;7.208;2023-07-16T09:15:54;1.47;;;1.37;;
4409;SDS011;2218;51.408;7.208;2023-07-16T09:18:23;1.30;;;1.20;;
4409;SDS011;2218;51.408;7.208;2023-07-16T09:20:54;1.40;;;1.20;;
4409;SDS011;2218;51.408;7.208;2023-07-16T09:23:23;1.40;;;1.30;;
4409;SDS011;2218;51.408;7.208;2023-07-16T09:25:52;1.27;;;1.17;;
4409;SDS011;2218;51.408;7.208;2023-07-16T09:28:20;1.17;;;1.07;;
4409;SDS011;2218;51.408;7.208;2023-07-16T09:30:47;1.20;;;1.07;;
4409;SDS011;2218;51.408;7.208;2023-07-16T09:33:17;1.30;;;1.20;;
4409;SDS011;2218;51.408;7.208;2023-07-16T09:35:47;1.50;;;1.40;;
4409;SDS011;2218;51.408;7.208;2023-07-16T09:38:15;1.40;;;1.30;;
4409;SDS011;2218;51.408;7.208;2023-07-16T09:40:43;1.10;;;1.03;;
4409;SDS011;2218;51.408;7.208;2023-07-16T09:43:11;1.00;;;0.90;;
4409;SDS011;2218;51.408;7.208;2023-07-16T09:45:39;1.27;;;1.17;;
4409;SDS011;2218;51.408;7.208;2023-07-16T09:48:09;1.20;;;1.10;;
4409;SDS011;2218;51.408;7.208;2023-07-16T09:50:38;1.60;;;1.50;;
4409;SDS011;2218;51.408;7.208;2023-07-16T09:53:13;1.30;;;1.20;;
4409;SDS011;2218;51.408;7.208;2023-07-16T09:55:45;1.40;;;1.30;;
4409;SDS011;2218;51.408;7.208;2023-07-16T09:58:14;1.50;;;1.40;;
4409;SDS011;2218;51.408;7.208;2023-07-16T10:00:47;1.40;;;1.30;;
4409;SDS011;2218;51.408;7.208;2023-07-16T10:03:15;1.40;;;1.30;;
4409;SDS011;2218;51.408;7.208;2023-07-16T10:05:44;1.40;;;1.30;;
4409;SDS011;2218;51.408;7.208;2023-07-16T10:08:17;1.00;;;1.00;;
4409;SDS011;2218;51.408;7.208;2023-07-16T10:10:46;1.40;;;1.30;;
4409;SDS011;2218;51.408;7.208;2023-07-16T10:13:16;1.40;;;1.30;;
4409;SDS011;2218;51.408;7.208;2023-07-16T10:15:53;1.23;;;1.13;;
4409;SDS011;2218;51.408;7.208;2023-07-16T10:18:23;1.50;;;1.40;;
4409;SDS011;2218;51.408;7.208;2023-07-16T10:20:54;1.30;;;1.23;;
4409;SDS011;2218;51.408;7.208;2023-07-16T10:23:35;1.27;;;1.17;;
4409;SDS011;2218;51.408;7.208;2023-07-16T10:26:07;1.40;;;1.30;;
4409;SDS011;2218;51.408;7.208;2023-07-16T10:28:37;1.70;;;1.60;;
4409;SDS011;2218;51.408;7.208;2023-07-16T10:31:05;1.50;;;1.40;;
4409;SDS011;2218;51.408;7.208;2023-07-16T10:33:42;1.30;;;1.20;;
4409;SDS011;2218;51.408;7.208;2023-07-16T10:36:17;1.30;;;1.20;;
4409;SDS011;2218;51.408;7.208;2023-07-16T10:38:45;1.47;;;1.37;;
4409;SDS011;2218;51.408;7.208;2023-07-16T10:41:12;1.33;;;1.23;;
4409;SDS011;2218;51.408;7.208;2023-07-16T10:43:39;1.40;;;1.30;;
4409;SDS011;2218;51.408;7.208;2023-07-16T10:46:06;1.47;;;1.37;;
4409;SDS011;2218;51.408;7.208;2023-07-16T10:48:35;1.60;;;1.50;;
4409;SDS011;2218;51.408;7.208;2023-07-16T10:51:02;1.20;;;1.10;;
4409;SDS011;2218;51.408;7.208;2023-07-16T10:53:30;1.50;;;1.40;;
4409;SDS011;2218;51.408;7.208;2023-07-16T10:55:58;1.30;;;1.20;;
4409;SDS011;2218;51.408;7.208;2023-07-16T10:58:26;1.40;;;1.30;;
4409;SDS011;2218;51.408;7.208;2023-07-16T11:00:53;1.30;;;1.20;;
4409;SDS011;2218;51.408;7.208;2023-07-16T11:03:20;1.43;;;1.33;;
4409;SDS011;2218;51.408;7.208;2023-07-16T11:05:47;1.63;;;1.53;;
4409;SDS011;2218;51.408;7.208;2023-07-16T11:08:21;1.43;;;1.33;;
4409;SDS011;2218;51.408;7.208;2023-07-16T11:10:53;1.10;;;1.00;;
4409;SDS011;2218;51.408;7.208;2023-07-16T11:13:24;1.60;;;1.50;;
4409;SDS011;2218;51.408;7.208;2023-07-16T11:15:53;1.30;;;1.20;;
4409;SDS011;2218;51.408;7.208;2023-07-16T11:18:21;1.47;;;1.37;;
4409;SDS011;2218;51.408;7.208;2023-07-16T11:20:50;1.30;;;1.20;;
4409;SDS011;2218;51.408;7.208;2023-07-16T11:23:18;1.30;;;1.20;;
4409;SDS011;2218;51.408;7.208;2023-07-16T11:25:46;1.50;;;1.40;;
4409;SDS011;2218;51.408;7.208;2023-07-16T11:28:14;1.50;;;1.40;;
4409;SDS011;2218;51.408;7.208;2023-07-16T11:30:42;1.43;;;1.33;;
4409;SDS011;2218;51.408;7.208;2023-07-16T11:33:09;1.47;;;1.37;;
4409;SDS011;2218;51.408;7.208;2023-07-16T11:35:38;1.40;;;1.30;;
4409;SDS011;2218;51.408;7.208;2023-07-16T11:38:05;1.77;;;1.10;;
4409;SDS011;2218;51.408;7.208;2023-07-16T11:40:33;1.40;;;1.30;;
4409;SDS011;2218;51.408;7.208;2023-07-16T11:43:07;1.50;;;1.40;;
4409;SDS011;2218;51.408;7.208;2023-07-16T11:45:37;1.60;;;1.50;;
4409;SDS011;2218;51.408;7.208;2023-07-16T11:48:04;1.33;;;1.23;;
4409;SDS011;2218;51.408;7.208;2023-07-16T11:50:31;1.50;;;1.40;;
4409;SDS011;2218;51.408;7.208;2023-07-16T11:52:59;1.50;;;1.40;;
4409;SDS011;2218;51.408;7.208;2023-07-16T11:55:27;1.57;;;1.47;;
4409;SDS011;2218;51.408;7.208;2023-07-16T11:57:54;1.20;;;1.10;;
4409;SDS011;2218;51.408;7.208;2023-07-16T12:00:24;1.60;;;1.50;;
4409;SDS011;2218;51.408;7.208;2023-07-16T12:02:53;1.00;;;1.00;;
4409;SDS011;2218;51.408;7.208;2023-07-16T12:05:20;1.43;;;1.33;;
4409;SDS011;2218;51.408;7.208;2023-07-16T12:07:49;1.50;;;1.40;;
4409;SDS011;2218;51.408;7.208;2023-07-16T12:10:16;1.47;;;1.37;;
4409;SDS011;2218;51.408;7.208;2023-07-16T12:12:43;1.77;;;1.67;;
4409;SDS011;2218;51.408;7.208;2023-07-16T12:15:10;1.30;;;1.20;;
4409;SDS011;2218;51.408;7.208;2023-07-16T12:17:37;1.30;;;1.20;;
4409;SDS011;2218;51.408;7.208;2023-07-16T12:20:06;1.27;;;1.17;;
4409;SDS011;2218;51.408;7.208;2023-07-16T12:22:33;1.30;;;1.20;;
4409;SDS011;2218;51.408;7.208;2023-07-16T12:25:01;1.23;;;1.13;;
4409;SDS011;2218;51.408;7.208;2023-07-16T12:27:29;1.37;;;1.27;;
4409;SDS011;2218;51.408;7.208;2023-07-16T12:29:56;1.50;;;1.40;;
4409;SDS011;2218;51.408;7.208;2023-07-16T12:32:22;1.30;;;1.20;;
4409;SDS011;2218;51.408;7.208;2023-07-16T12:34:49;1.20;;;1.10;;
4409;SDS011;2218;51.408;7.208;2023-07-16T12:37:17;1.60;;;1.50;;
4409;SDS011;2218;51.408;7.208;2023-07-16T12:39:44;1.40;;;1.30;;
4409;SDS011;2218;51.408;7.208;2023-07-16T12:42:11;1.20;;;1.10;;
4409;SDS011;2218;51.408;7.208;2023-07-16T12:44:38;1.60;;;1.50;;
4409;SDS011;2218;51.408;7.208;2023-07-16T12:47:05;1.27;;;1.17;;
4409;SDS011;2218;51.408;7.208;2023-07-16T12:49:33;1.47;;;1.37;;
4409;SDS011;2218;51.408;7.208;2023-07-16T12:52:00;1.10;;;1.10;;
4409;SDS011;2218;51.408;7.208;2023-07-16T12:54:29;1.33;;;1.23;;
4409;SDS011;2218;51.408;7.208;2023-07-16T12:56:55;1.60;;;1.50;;
4409;SDS011;2218;51.408;7.208;2023-07-16T12:59:22;1.70;;;1.47;;
4409;SDS011;2218;51.408;7.208;2023-07-16T13:01:49;1.50;;;1.40;;
4409;SDS011;2218;51.408;7.208;2023-07-16T13:04:17;1.40;;;1.30;;
4409;SDS011;2218;51.408;7.208;2023-07-16T13:06:44;1.30;;;1.20;;
4409;SDS011;2218;51.408;7.208;2023-07-16T13:09:12;1.97;;;1.50;;
4409;SDS011;2218;51.408;7.208;2023-07-16T13:11:42;1.57;;;1.47;;
4409;SDS011;2218;51.408;7.208;2023-07-16T13:14:09;1.70;;;1.60;;
4409;SDS011;2218;51.408;7.208;2023-07-16T13:16:36;1.50;;;1.40;;
4409;SDS011;2218;51.408;7.208;2023-07-16T13:19:03;1.67;;;1.43;;
4409;SDS011;2218;51.408;7.208;2023-07-16T13:21:30;1.20;;;1.10;;
4409;SDS011;2218;51.408;7.208;2023-07-16T13:23:57;1.37;;;1.27;;
4409;SDS011;2218;51.408;7.208;2023-07-16T13:26:24;1.73;;;1.63;;
4409;SDS011;2218;51.408;7.208;2023-07-16T13:28:52;1.43;;;1.33;;
4409;SDS011;2218;51.408;7.208;2023-07-16T13:31:19;1.30;;;1.20;;
4409;SDS011;2218;51.408;7.208;2023-07-16T13:33:46;1.30;;;1.20;;
4409;SDS011;2218;51.408;7.208;2023-07-16T13:36:13;1.40;;;1.30;;
4409;SDS011;2218;51.408;7.208;2023-07-16T13:38:40;1.50;;;1.40;;
4409;SDS011;2218;51.408;7.208;2023-07-16T13:41:07;1.30;;;1.20;;
4409;SDS011;2218;51.408;7.208;2023-07-16T13:43:34;1.37;;;1.27;;
4409;SDS011;2218;51.408;7.208;2023-07-16T13:46:03;1.43;;;1.33;;
4409;SDS011;2218;51.408;7.208;2023-07-16T13:48:30;1.43;;;1.33;;
4409;SDS011;2218;51.408;7.208;2023-07-16T13:50:57;1.27;;;1.17;;
4409;SDS011;2218;51.408;7.208;2023-07-16T13:53:24;1.40;;;1.30;;
4409;SDS011;2218;51.408;7.208;2023-07-16T13:55:51;1.40;;;1.30;;
4409;SDS011;2218;51.408;7.208;2023-07-16T13:58:18;1.10;;;1.10;;
4409;SDS011;2218;51.408;7.208;2023-07-16T14:00:45;1.50;;;1.40;;
4409;SDS011;2218;51.408;7.208;2023-07-16T14:03:13;1.57;;;1.37;;
4409;SDS011;2218;51.408;7.208;2023-07-16T14:05:40;1.50;;;1.40;;
4409;SDS011;2218;51.408;7.208;2023-07-16T14:08:07;1.43;;;1.33;;
4409;SDS011;2218;51.408;7.208;2023-07-16T14:10:34;1.83;;;1.73;;
4409;SDS011;2218;51.408;7.208;2023-07-16T14:13:01;1.30;;;1.20;;
4409;SDS011;2218;51.408;7.208;2023-07-16T14:15:28;1.40;;;1.30;;
4409;SDS011;2218;51.408;7.208;2023-07-16T14:17:55;1.57;;;1.47;;
4409;SDS011;2218;51.408;7.208;2023-07-16T14:20:23;1.20;;;1.10;;
4409;SDS011;2218;51.408;7.208;2023-07-16T14:22:50;1.27;;;1.17;;
4409;SDS011;2218;51.408;7.208;2023-07-16T14:25:17;1.10;;;1.00;;
4409;SDS011;2218;51.408;7.208;2023-07-16T14:27:44;1.33;;;1.20;;
4409;SDS011;2218;51.408;7.208;2023-07-16T14:30:12;1.27;;;1.17;;
4409;SDS011;2218;51.408;7.208;2023-07-16T14:32:39;1.73;;;1.30;;
4409;SDS011;2218;51.408;7.208;2023-07-16T14:35:08;1.57;;;1.47;;
4409;SDS011;2218;51.408;7.208;2023-07-16T14:37:38;1.40;;;1.30;;
4409;SDS011;2218;51.408;7.208;2023-07-16T14:40:05;1.50;;;1.33;;
4409;SDS011;2218;51.408;7.208;2023-07-16T14:42:33;1.43;;;1.30;;
4409;SDS011;2218;51.408;7.208;2023-07-16T14:45:00;1.60;;;1.50;;
4409;SDS011;2218;51.408;7.208;2023-07-16T14:47:28;1.40;;;1.30;;
4409;SDS011;2218;51.408;7.208;2023-07-16T14:49:55;1.50;;;1.40;;
4409;SDS011;2218;51.408;7.208;2023-07-16T14:52:21;1.50;;;1.40;;
4409;SDS011;2218;51.408;7.208;2023-07-16T14:54:50;1.73;;;1.63;;
4409;SDS011;2218;51.408;7.208;2023-07-16T14:57:17;1.57;;;1.47;;
4409;SDS011;2218;51.408;7.208;2023-07-16T14:59:44;1.47;;;1.37;;
4409;SDS011;2218;51.408;7.208;2023-07-16T15:02:10;1.80;;;1.70;;
4409;SDS011;2218;51.408;7.208;2023-07-16T15:04:37;1.47;;;1.37;;
4409;SDS011;2218;51.408;7.208;2023-07-16T15:07:05;1.80;;;1.70;;
4409;SDS011;2218;51.408;7.208;2023-07-16T15:09:32;1.50;;;1.40;;
4409;SDS011;2218;51.408;7.208;2023-07-16T15:12:04;1.70;;;1.60;;
4409;SDS011;2218;51.408;7.208;2023-07-16T15:14:33;1.33;;;1.23;;
4409;SDS011;2218;51.408;7.208;2023-07-16T15:17:00;1.47;;;1.37;;
4409;SDS011;2218;51.408;7.208;2023-07-16T15:19:26;1.40;;;1.30;;
4409;SDS011;2218;51.408;7.208;2023-07-16T15:21:53;1.40;;;1.30;;